sensor_id;sensor_type;location;lat;lon;timestamp;temperature;humidity
12959;DHT22;6544;51.666;6.634;2022-07-04T00:01:41;16.30;1.00
12959;DHT22;6544;51.666;6.634;2022-07-04T00:04:08;16.40;1.00
12959;DHT22;6544;51.666;6.634;2022-07-04T00:06:35;16.60;1.00
12959;DHT22;6544;51.666;6.634;2022-07-04T00:09:03;16.40;1.00
12959;DHT22;6544;51.666;6.634;2022-07-04T00:11:30;16.40;1.00
12959;DHT22;6544;51.666;6.634;2022-07-04T00:13:57;16.70;99.90
12959;DHT22;6544;51.666;6.634;2022-07-04T00:16:24;16.90;1.00
12959;DHT22;6544;51.666;6.634;2022-07-04T00:18:51;17.10;1.00
12959;DHT22;6544;51.666;6.634;2022-07-04T00:21:18;17.30;99.90
12959;DHT22;6544;51.666;6.634;2022-07-04T00:23:45;17.40;1.00
12959;DHT22;6544;51.666;6.634;2022-07-04T00:26:14;17.60;1.00
12959;DHT22;6544;51.666;6.634;2022-07-04T00:28:40;17.60;99.90
12959;DHT22;6544;51.666;6.634;2022-07-04T00:31:07;17.60;99.90
12959;DHT22;6544;51.666;6.634;2022-07-04T00:33:34;17.40;1.00
12959;DHT22;6544;51.666;6.634;2022-07-04T00:36:01;17.30;1.00
12959;DHT22;6544;51.666;6.634;2022-07-04T00:38:29;17.10;1.00
12959;DHT22;6544;51.666;6.634;2022-07-04T00:40:55;17.00;1.00
12959;DHT22;6544;51.666;6.634;2022-07-04T00:43:25;17.00;1.90
12959;DHT22;6544;51.666;6.634;2022-07-04T00:45:52;17.20;1.00
12959;DHT22;6544;51.666;6.634;2022-07-04T00:48:19;17.30;1.00
12959;DHT22;6544;51.666;6.634;2022-07-04T00:50:47;17.30;99.90
12959;DHT22;6544;51.666;6.634;2022-07-04T00:53:14;17.10;1.00
12959;DHT22;6544;51.666;6.634;2022-07-04T00:55:41;17.20;1.00
12959;DHT22;6544;51.666;6.634;2022-07-04T00:58:09;17.40;99.90
12959;DHT22;6544;51.666;6.634;2022-07-04T01:00:38;17.50;1.00
12959;DHT22;6544;51.666;6.634;2022-07-04T01:03:05;17.60;1.00
12959;DHT22;6544;51.666;6.634;2022-07-04T01:05:32;17.70;1.00
12959;DHT22;6544;51.666;6.634;2022-07-04T01:07:59;17.80;1.00
12959;DHT22;6544;51.666;6.634;2022-07-04T01:10:26;17.80;99.90
12959;DHT22;6544;51.666;6.634;2022-07-04T01:12:53;17.80;99.90
12959;DHT22;6544;51.666;6.634;2022-07-04T01:15:21;17.80;99.90
12959;DHT22;6544;51.666;6.634;2022-07-04T01:17:49;17.90;99.90
12959;DHT22;6544;51.666;6.634;2022-07-04T01:20:17;17.90;99.90
12959;DHT22;6544;51.666;6.634;2022-07-04T01:22:44;17.90;99.90
12959;DHT22;6544;51.666;6.634;2022-07-04T01:25:11;17.90;99.90
12959;DHT22;6544;51.666;6.634;2022-07-04T01:27:40;17.90;99.90
12959;DHT22;6544;51.666;6.634;2022-07-04T01:30:08;17.90;99.90
12959;DHT22;6544;51.666;6.634;2022-07-04T01:32:35;17.90;99.90
12959;DHT22;6544;51.666;6.634;2022-07-04T01:35:02;17.60;14.70
12959;DHT22;6544;51.666;6.634;2022-07-04T01:37:31;17.70;1.00
12959;DHT22;6544;51.666;6.634;2022-07-04T01:39:57;17.70;1.00
12959;DHT22;6544;51.666;6.634;2022-07-04T01:42:24;17.70;1.00
12959;DHT22;6544;51.666;6.634;2022-07-04T01:44:51;17.70;1.00
12959;DHT22;6544;51.666;6.634;2022-07-04T01:47:18;17.50;99.90
12959;DHT22;6544;51.666;6.634;2022-07-04T01:49:45;17.10;1.00
12959;DHT22;6544;51.666;6.634;2022-07-04T01:52:12;16.80;1.00
12959;DHT22;6544;51.666;6.634;2022-07-04T01:54:42;16.50;1.00
12959;DHT22;6544;51.666;6.634;2022-07-04T01:57:09;16.30;99.90
12959;DHT22;6544;51.666;6.634;2022-07-04T01:59:38;16.30;99.90
12959;DHT22;6544;51.666;6.634;2022-07-04T02:02:23;16.30;1.00
12959;DHT22;6544;51.666;6.634;2022-07-04T02:04:50;16.30;99.90
12959;DHT22;6544;51.666;6.634;2022-07-04T02:07:17;16.40;1.00
12959;DHT22;6544;51.666;6.634;2022-07-04T02:09:45;16.30;1.00
12959;DHT22;6544;51.666;6.634;2022-07-04T02:12:12;16.00;56.80
12959;DHT22;6544;51.666;6.634;2022-07-04T02:14:57;15.70;1.00
12959;DHT22;6544;51.666;6.634;2022-07-04T02:17:24;15.70;1.00
12959;DHT22;6544;51.666;6.634;2022-07-04T02:19:51;15.50;1.00
12959;DHT22;6544;51.666;6.634;2022-07-04T02:22:18;15.50;99.90
12959;DHT22;6544;51.666;6.634;2022-07-04T02:24:46;15.50;99.90
12959;DHT22;6544;51.666;6.634;2022-07-04T02:27:13;15.70;99.90
12959;DHT22;6544;51.666;6.634;2022-07-04T02:29:40;16.00;99.90
12959;DHT22;6544;51.666;6.634;2022-07-04T02:32:08;16.30;99.90
12959;DHT22;6544;51.666;6.634;2022-07-04T02:34:35;16.50;93.70
12959;DHT22;6544;51.666;6.634;2022-07-04T02:37:02;16.70;99.90
12959;DHT22;6544;51.666;6.634;2022-07-04T02:39:29;16.70;99.90
12959;DHT22;6544;51.666;6.634;2022-07-04T02:41:57;16.80;1.00
12959;DHT22;6544;51.666;6.634;2022-07-04T02:44:24;16.90;1.00
12959;DHT22;6544;51.666;6.634;2022-07-04T02:46:51;16.90;1.00
12959;DHT22;6544;51.666;6.634;2022-07-04T02:49:19;17.00;99.90
12959;DHT22;6544;51.666;6.634;2022-07-04T02:51:46;17.00;99.90
12959;DHT22;6544;51.666;6.634;2022-07-04T02:54:13;17.00;99.90
12959;DHT22;6544;51.666;6.634;2022-07-04T02:56:39;17.10;97.00
12959;DHT22;6544;51.666;6.634;2022-07-04T02:59:08;17.10;1.00
12959;DHT22;6544;51.666;6.634;2022-07-04T03:01:35;17.10;1.00
12959;DHT22;6544;51.666;6.634;2022-07-04T03:04:02;17.00;1.00
12959;DHT22;6544;51.666;6.634;2022-07-04T03:06:29;17.00;1.00
12959;DHT22;6544;51.666;6.634;2022-07-04T03:08:57;16.90;1.00
12959;DHT22;6544;51.666;6.634;2022-07-04T03:11:24;16.90;1.00
12959;DHT22;6544;51.666;6.634;2022-07-04T03:13:50;16.90;1.00
12959;DHT22;6544;51.666;6.634;2022-07-04T03:16:19;17.00;1.00
12959;DHT22;6544;51.666;6.634;2022-07-04T03:18:46;16.90;1.00
12959;DHT22;6544;51.666;6.634;2022-07-04T03:21:13;16.90;1.00
12959;DHT22;6544;51.666;6.634;2022-07-04T03:23:39;16.90;1.00
12959;DHT22;6544;51.666;6.634;2022-07-04T03:26:06;16.90;1.00
12959;DHT22;6544;51.666;6.634;2022-07-04T03:28:34;16.90;1.00
12959;DHT22;6544;51.666;6.634;2022-07-04T03:31:02;16.90;1.00
12959;DHT22;6544;51.666;6.634;2022-07-04T03:33:31;16.80;1.00
12959;DHT22;6544;51.666;6.634;2022-07-04T03:35:58;16.80;1.00
12959;DHT22;6544;51.666;6.634;2022-07-04T03:38:24;16.80;1.00
12959;DHT22;6544;51.666;6.634;2022-07-04T03:40:51;16.80;99.90
12959;DHT22;6544;51.666;6.634;2022-07-04T03:43:18;16.70;99.90
12959;DHT22;6544;51.666;6.634;2022-07-04T03:45:45;16.60;1.00
12959;DHT22;6544;51.666;6.634;2022-07-04T03:48:12;16.60;1.00
12959;DHT22;6544;51.666;6.634;2022-07-04T03:50:40;16.60;1.00
12959;DHT22;6544;51.666;6.634;2022-07-04T03:53:07;16.60;1.00
12959;DHT22;6544;51.666;6.634;2022-07-04T03:55:34;16.60;1.00
12959;DHT22;6544;51.666;6.634;2022-07-04T03:58:01;16.50;1.00
12959;DHT22;6544;51.666;6.634;2022-07-04T04:00:30;16.30;99.90
12959;DHT22;6544;51.666;6.634;2022-07-04T04:02:57;16.30;99.90
12959;DHT22;6544;51.666;6.634;2022-07-04T04:05:23;16.30;99.90
12959;DHT22;6544;51.666;6.634;2022-07-04T04:07:55;16.30;99.90
12959;DHT22;6544;51.666;6.634;2022-07-04T04:10:23;16.30;88.00
12959;DHT22;6544;51.666;6.634;2022-07-04T04:12:50;16.30;1.00
12959;DHT22;6544;51.666;6.634;2022-07-04T04:15:17;16.20;99.90
12959;DHT22;6544;51.666;6.634;2022-07-04T04:17:44;16.20;99.90
12959;DHT22;6544;51.666;6.634;2022-07-04T04:20:11;16.20;1.00
12959;DHT22;6544;51.666;6.634;2022-07-04T04:22:38;16.20;99.90
12959;DHT22;6544;51.666;6.634;2022-07-04T04:25:08;16.20;99.90
12959;DHT22;6544;51.666;6.634;2022-07-04T04:27:34;16.00;1.00
12959;DHT22;6544;51.666;6.634;2022-07-04T04:30:02;16.00;99.90
12959;DHT22;6544;51.666;6.634;2022-07-04T04:32:29;16.10;99.90
12959;DHT22;6544;51.666;6.634;2022-07-04T04:34:56;16.10;1.00
12959;DHT22;6544;51.666;6.634;2022-07-04T04:37:23;16.10;89.90
12959;DHT22;6544;51.666;6.634;2022-07-04T04:39:50;16.10;99.90
12959;DHT22;6544;51.666;6.634;2022-07-04T04:42:19;16.00;1.00
12959;DHT22;6544;51.666;6.634;2022-07-04T04:44:45;16.10;38.70
12959;DHT22;6544;51.666;6.634;2022-07-04T04:47:12;16.20;99.90
12959;DHT22;6544;51.666;6.634;2022-07-04T04:49:39;16.00;99.90
12959;DHT22;6544;51.666;6.634;2022-07-04T04:52:06;16.10;1.00
12959;DHT22;6544;51.666;6.634;2022-07-04T04:54:33;16.10;1.00
12959;DHT22;6544;51.666;6.634;2022-07-04T04:57:00;16.20;99.90
12959;DHT22;6544;51.666;6.634;2022-07-04T04:59:29;16.30;1.00
12959;DHT22;6544;51.666;6.634;2022-07-04T05:01:56;16.20;99.90
12959;DHT22;6544;51.666;6.634;2022-07-04T05:04:23;16.20;99.90
12959;DHT22;6544;51.666;6.634;2022-07-04T05:06:50;16.10;1.00
12959;DHT22;6544;51.666;6.634;2022-07-04T05:09:17;16.20;99.90
12959;DHT22;6544;51.666;6.634;2022-07-04T05:11:44;16.20;55.90
12959;DHT22;6544;51.666;6.634;2022-07-04T05:14:12;16.20;1.00
12959;DHT22;6544;51.666;6.634;2022-07-04T05:16:40;16.20;1.00
12959;DHT22;6544;51.666;6.634;2022-07-04T05:19:07;16.30;99.90
12959;DHT22;6544;51.666;6.634;2022-07-04T05:21:34;16.20;1.00
12959;DHT22;6544;51.666;6.634;2022-07-04T05:24:00;16.10;99.90
12959;DHT22;6544;51.666;6.634;2022-07-04T05:26:27;16.00;1.00
12959;DHT22;6544;51.666;6.634;2022-07-04T05:28:54;16.10;99.90
12959;DHT22;6544;51.666;6.634;2022-07-04T05:31:22;16.10;1.00
12959;DHT22;6544;51.666;6.634;2022-07-04T05:33:52;16.20;99.90
12959;DHT22;6544;51.666;6.634;2022-07-04T05:36:19;16.30;99.90
12959;DHT22;6544;51.666;6.634;2022-07-04T05:38:46;16.20;99.90
12959;DHT22;6544;51.666;6.634;2022-07-04T05:41:13;16.30;60.60
12959;DHT22;6544;51.666;6.634;2022-07-04T05:43:40;16.30;1.00
12959;DHT22;6544;51.666;6.634;2022-07-04T05:46:08;16.40;99.90
12959;DHT22;6544;51.666;6.634;2022-07-04T05:48:35;16.50;1.00
12959;DHT22;6544;51.666;6.634;2022-07-04T05:51:04;16.50;1.00
12959;DHT22;6544;51.666;6.634;2022-07-04T05:53:31;16.50;1.00
12959;DHT22;6544;51.666;6.634;2022-07-04T05:55:58;16.50;1.00
12959;DHT22;6544;51.666;6.634;2022-07-04T05:58:25;16.60;1.00
12959;DHT22;6544;51.666;6.634;2022-07-04T06:00:52;16.60;99.90
12959;DHT22;6544;51.666;6.634;2022-07-04T06:03:19;16.70;5.50
12959;DHT22;6544;51.666;6.634;2022-07-04T06:05:46;16.80;99.90
12959;DHT22;6544;51.666;6.634;2022-07-04T06:08:16;16.80;1.00
12959;DHT22;6544;51.666;6.634;2022-07-04T06:10:43;16.90;1.00
12959;DHT22;6544;51.666;6.634;2022-07-04T06:13:10;16.90;1.00
12959;DHT22;6544;51.666;6.634;2022-07-04T06:15:37;17.00;1.00
12959;DHT22;6544;51.666;6.634;2022-07-04T06:18:04;17.00;1.00
12959;DHT22;6544;51.666;6.634;2022-07-04T06:20:31;17.20;99.90
12959;DHT22;6544;51.666;6.634;2022-07-04T06:22:58;17.30;82.30
12959;DHT22;6544;51.666;6.634;2022-07-04T06:25:27;17.40;1.00
12959;DHT22;6544;51.666;6.634;2022-07-04T06:27:53;17.40;1.00
12959;DHT22;6544;51.666;6.634;2022-07-04T06:30:20;17.40;99.90
12959;DHT22;6544;51.666;6.634;2022-07-04T06:32:49;17.50;1.00
12959;DHT22;6544;51.666;6.634;2022-07-04T06:35:19;17.50;1.00
12959;DHT22;6544;51.666;6.634;2022-07-04T06:38:04;17.50;1.00
12959;DHT22;6544;51.666;6.634;2022-07-04T06:40:33;17.60;99.90
12959;DHT22;6544;51.666;6.634;2022-07-04T06:43:00;17.70;99.90
12959;DHT22;6544;51.666;6.634;2022-07-04T06:45:27;17.90;99.90
12959;DHT22;6544;51.666;6.634;2022-07-04T06:47:54;18.00;1.00
12959;DHT22;6544;51.666;6.634;2022-07-04T06:50:22;18.10;99.90
12959;DHT22;6544;51.666;6.634;2022-07-04T06:52:49;18.10;1.00
12959;DHT22;6544;51.666;6.634;2022-07-04T06:55:18;18.10;46.30
12959;DHT22;6544;51.666;6.634;2022-07-04T06:57:47;18.20;99.90
12959;DHT22;6544;51.666;6.634;2022-07-04T07:00:14;18.20;1.00
12959;DHT22;6544;51.666;6.634;2022-07-04T07:02:41;18.30;99.90
12959;DHT22;6544;51.666;6.634;2022-07-04T07:05:08;18.50;99.90
12959;DHT22;6544;51.666;6.634;2022-07-04T07:07:35;18.50;9.90
12959;DHT22;6544;51.666;6.634;2022-07-04T07:10:03;18.70;6.60
12959;DHT22;6544;51.666;6.634;2022-07-04T07:12:32;18.70;1.00
12959;DHT22;6544;51.666;6.634;2022-07-04T07:15:01;18.50;1.00
12959;DHT22;6544;51.666;6.634;2022-07-04T07:17:29;18.40;1.00
12959;DHT22;6544;51.666;6.634;2022-07-04T07:19:56;18.50;1.00
12959;DHT22;6544;51.666;6.634;2022-07-04T07:22:23;18.60;1.00
12959;DHT22;6544;51.666;6.634;2022-07-04T07:24:50;18.80;1.00
12959;DHT22;6544;51.666;6.634;2022-07-04T07:27:17;18.90;99.90
12959;DHT22;6544;51.666;6.634;2022-07-04T07:29:44;19.10;99.90
12959;DHT22;6544;51.666;6.634;2022-07-04T07:32:12;19.20;99.90
12959;DHT22;6544;51.666;6.634;2022-07-04T07:34:39;19.20;99.90
12959;DHT22;6544;51.666;6.634;2022-07-04T07:37:07;19.20;99.90
12959;DHT22;6544;51.666;6.634;2022-07-04T07:39:34;19.30;99.90
12959;DHT22;6544;51.666;6.634;2022-07-04T07:42:01;19.40;97.40
12959;DHT22;6544;51.666;6.634;2022-07-04T07:44:28;19.40;99.90
12959;DHT22;6544;51.666;6.634;2022-07-04T07:46:55;19.50;8.40
12959;DHT22;6544;51.666;6.634;2022-07-04T07:49:24;19.50;1.00
12959;DHT22;6544;51.666;6.634;2022-07-04T07:51:50;19.70;82.20
12959;DHT22;6544;51.666;6.634;2022-07-04T07:54:17;19.60;1.00
12959;DHT22;6544;51.666;6.634;2022-07-04T07:56:44;19.80;47.20
12959;DHT22;6544;51.666;6.634;2022-07-04T07:59:11;19.90;1.00
12959;DHT22;6544;51.666;6.634;2022-07-04T08:01:38;19.70;99.90
12959;DHT22;6544;51.666;6.634;2022-07-04T08:04:05;19.90;98.40
12959;DHT22;6544;51.666;6.634;2022-07-04T08:06:51;20.00;1.00
12959;DHT22;6544;51.666;6.634;2022-07-04T08:09:18;20.10;1.00
12959;DHT22;6544;51.666;6.634;2022-07-04T08:11:45;20.20;1.00
12959;DHT22;6544;51.666;6.634;2022-07-04T08:14:15;20.20;1.00
12959;DHT22;6544;51.666;6.634;2022-07-04T08:16:42;20.20;1.00
12959;DHT22;6544;51.666;6.634;2022-07-04T08:19:09;20.40;1.00
12959;DHT22;6544;51.666;6.634;2022-07-04T08:21:36;20.50;1.00
12959;DHT22;6544;51.666;6.634;2022-07-04T08:24:05;20.60;1.00
12959;DHT22;6544;51.666;6.634;2022-07-04T08:26:32;20.60;1.00
12959;DHT22;6544;51.666;6.634;2022-07-04T08:28:59;20.70;1.00
12959;DHT22;6544;51.666;6.634;2022-07-04T08:31:26;20.60;1.00
12959;DHT22;6544;51.666;6.634;2022-07-04T08:33:53;20.40;1.00
12959;DHT22;6544;51.666;6.634;2022-07-04T08:36:20;20.50;1.00
12959;DHT22;6544;51.666;6.634;2022-07-04T08:38:47;20.40;99.90
12959;DHT22;6544;51.666;6.634;2022-07-04T08:41:18;20.70;99.90
12959;DHT22;6544;51.666;6.634;2022-07-04T08:43:47;20.80;99.90
12959;DHT22;6544;51.666;6.634;2022-07-04T08:46:15;20.90;99.90
12959;DHT22;6544;51.666;6.634;2022-07-04T08:48:50;20.70;99.90
12959;DHT22;6544;51.666;6.634;2022-07-04T08:51:25;20.80;99.90
12959;DHT22;6544;51.666;6.634;2022-07-04T08:53:56;20.90;1.00
12959;DHT22;6544;51.666;6.634;2022-07-04T08:56:25;20.90;99.90
12959;DHT22;6544;51.666;6.634;2022-07-04T08:59:11;21.10;99.90
12959;DHT22;6544;51.666;6.634;2022-07-04T09:01:40;21.30;99.90
12959;DHT22;6544;51.666;6.634;2022-07-04T09:04:10;21.50;99.90
12959;DHT22;6544;51.666;6.634;2022-07-04T09:06:37;21.60;99.90
12959;DHT22;6544;51.666;6.634;2022-07-04T09:09:05;21.60;99.90
12959;DHT22;6544;51.666;6.634;2022-07-04T09:11:35;21.80;99.90
12959;DHT22;6544;51.666;6.634;2022-07-04T09:14:01;21.70;33.90
12959;DHT22;6544;51.666;6.634;2022-07-04T09:16:28;21.70;1.00
12959;DHT22;6544;51.666;6.634;2022-07-04T09:18:55;21.70;99.90
12959;DHT22;6544;51.666;6.634;2022-07-04T09:21:42;21.90;99.90
12959;DHT22;6544;51.666;6.634;2022-07-04T09:24:09;21.90;1.00
12959;DHT22;6544;51.666;6.634;2022-07-04T09:26:40;22.10;1.00
12959;DHT22;6544;51.666;6.634;2022-07-04T09:29:07;22.20;1.00
12959;DHT22;6544;51.666;6.634;2022-07-04T09:31:34;22.10;1.00
12959;DHT22;6544;51.666;6.634;2022-07-04T09:34:01;22.20;1.00
12959;DHT22;6544;51.666;6.634;2022-07-04T09:36:31;22.00;1.00
12959;DHT22;6544;51.666;6.634;2022-07-04T09:39:07;21.90;1.00
12959;DHT22;6544;51.666;6.634;2022-07-04T09:41:51;21.90;1.00
12959;DHT22;6544;51.666;6.634;2022-07-04T09:44:19;22.10;1.00
12959;DHT22;6544;51.666;6.634;2022-07-04T09:46:46;22.30;1.00
12959;DHT22;6544;51.666;6.634;2022-07-04T09:49:13;22.40;1.00
12959;DHT22;6544;51.666;6.634;2022-07-04T09:51:42;22.30;1.00
12959;DHT22;6544;51.666;6.634;2022-07-04T09:54:30;22.00;1.00
12959;DHT22;6544;51.666;6.634;2022-07-04T09:57:01;22.30;1.00
12959;DHT22;6544;51.666;6.634;2022-07-04T09:59:29;22.30;1.00
12959;DHT22;6544;51.666;6.634;2022-07-04T10:02:06;22.10;1.00
12959;DHT22;6544;51.666;6.634;2022-07-04T10:04:44;22.10;99.90
12959;DHT22;6544;51.666;6.634;2022-07-04T10:07:12;21.90;1.00
12959;DHT22;6544;51.666;6.634;2022-07-04T10:09:55;22.10;1.00
12959;DHT22;6544;51.666;6.634;2022-07-04T10:12:26;22.40;1.00
12959;DHT22;6544;51.666;6.634;2022-07-04T10:14:54;22.60;1.00
12959;DHT22;6544;51.666;6.634;2022-07-04T10:17:21;22.60;1.00
12959;DHT22;6544;51.666;6.634;2022-07-04T10:19:49;22.90;1.00
12959;DHT22;6544;51.666;6.634;2022-07-04T10:22:19;22.40;99.90
12959;DHT22;6544;51.666;6.634;2022-07-04T10:24:47;22.50;99.90
12959;DHT22;6544;51.666;6.634;2022-07-04T10:27:14;22.50;99.90
12959;DHT22;6544;51.666;6.634;2022-07-04T10:29:43;22.70;1.00
12959;DHT22;6544;51.666;6.634;2022-07-04T10:32:11;22.70;99.90
12959;DHT22;6544;51.666;6.634;2022-07-04T10:34:40;22.90;99.90
12959;DHT22;6544;51.666;6.634;2022-07-04T10:37:07;23.00;99.90
12959;DHT22;6544;51.666;6.634;2022-07-04T10:39:34;23.10;99.90
12959;DHT22;6544;51.666;6.634;2022-07-04T10:42:01;23.00;99.90
12959;DHT22;6544;51.666;6.634;2022-07-04T10:44:28;22.60;99.90
12959;DHT22;6544;51.666;6.634;2022-07-04T10:47:04;22.40;99.90
12959;DHT22;6544;51.666;6.634;2022-07-04T10:49:31;22.10;1.00
12959;DHT22;6544;51.666;6.634;2022-07-04T10:52:09;22.60;1.00
12959;DHT22;6544;51.666;6.634;2022-07-04T10:54:38;22.70;99.90
12959;DHT22;6544;51.666;6.634;2022-07-04T10:57:14;22.80;99.90
12959;DHT22;6544;51.666;6.634;2022-07-04T10:59:42;23.00;1.00
12959;DHT22;6544;51.666;6.634;2022-07-04T11:02:27;23.20;99.90
12959;DHT22;6544;51.666;6.634;2022-07-04T11:04:58;23.20;99.90
12959;DHT22;6544;51.666;6.634;2022-07-04T11:07:59;23.50;99.90
12959;DHT22;6544;51.666;6.634;2022-07-04T11:10:30;23.80;99.90
12959;DHT22;6544;51.666;6.634;2022-07-04T11:13:14;24.20;99.90
12959;DHT22;6544;51.666;6.634;2022-07-04T11:16:06;23.80;99.90
12959;DHT22;6544;51.666;6.634;2022-07-04T11:18:44;24.00;99.90
12959;DHT22;6544;51.666;6.634;2022-07-04T11:21:22;24.30;99.90
12959;DHT22;6544;51.666;6.634;2022-07-04T11:23:53;24.40;99.90
12959;DHT22;6544;51.666;6.634;2022-07-04T11:26:23;23.40;99.90
12959;DHT22;6544;51.666;6.634;2022-07-04T11:28:50;23.70;99.90
12959;DHT22;6544;51.666;6.634;2022-07-04T11:31:17;24.00;99.90
12959;DHT22;6544;51.666;6.634;2022-07-04T11:33:46;24.40;99.90
12959;DHT22;6544;51.666;6.634;2022-07-04T11:36:16;24.60;99.90
12959;DHT22;6544;51.666;6.634;2022-07-04T11:38:46;24.70;99.90
12959;DHT22;6544;51.666;6.634;2022-07-04T11:41:14;25.00;99.90
12959;DHT22;6544;51.666;6.634;2022-07-04T11:44:03;24.80;76.30
12959;DHT22;6544;51.666;6.634;2022-07-04T11:46:47;25.30;65.80
12959;DHT22;6544;51.666;6.634;2022-07-04T11:49:16;25.30;1.00
12959;DHT22;6544;51.666;6.634;2022-07-04T11:51:44;25.30;54.60
12959;DHT22;6544;51.666;6.634;2022-07-04T11:54:12;25.40;1.00
12959;DHT22;6544;51.666;6.634;2022-07-04T11:56:40;24.40;8.50
12959;DHT22;6544;51.666;6.634;2022-07-04T11:59:11;24.70;19.20
12959;DHT22;6544;51.666;6.634;2022-07-04T12:01:39;24.80;99.90
12959;DHT22;6544;51.666;6.634;2022-07-04T12:04:14;25.20;26.50
12959;DHT22;6544;51.666;6.634;2022-07-04T12:06:43;25.50;1.00
12959;DHT22;6544;51.666;6.634;2022-07-04T12:09:11;24.70;3.00
12959;DHT22;6544;51.666;6.634;2022-07-04T12:11:58;24.10;75.20
12959;DHT22;6544;51.666;6.634;2022-07-04T12:14:26;24.10;99.90
12959;DHT22;6544;51.666;6.634;2022-07-04T12:17:14;24.80;85.30
12959;DHT22;6544;51.666;6.634;2022-07-04T12:19:54;25.60;38.10
12959;DHT22;6544;51.666;6.634;2022-07-04T12:22:31;26.20;19.30
12959;DHT22;6544;51.666;6.634;2022-07-04T12:24:58;26.40;1.00
12959;DHT22;6544;51.666;6.634;2022-07-04T12:27:26;26.20;1.00
12959;DHT22;6544;51.666;6.634;2022-07-04T12:29:54;26.40;1.00
12959;DHT22;6544;51.666;6.634;2022-07-04T12:32:23;26.60;1.00
12959;DHT22;6544;51.666;6.634;2022-07-04T12:34:50;25.30;1.00
12959;DHT22;6544;51.666;6.634;2022-07-04T12:37:17;25.50;37.70
12959;DHT22;6544;51.666;6.634;2022-07-04T12:39:45;25.30;1.00
12959;DHT22;6544;51.666;6.634;2022-07-04T12:42:14;24.80;38.80
12959;DHT22;6544;51.666;6.634;2022-07-04T12:44:43;25.00;44.40
12959;DHT22;6544;51.666;6.634;2022-07-04T12:47:11;25.30;99.90
12959;DHT22;6544;51.666;6.634;2022-07-04T12:49:42;25.60;1.00
12959;DHT22;6544;51.666;6.634;2022-07-04T12:52:12;25.60;1.00
12959;DHT22;6544;51.666;6.634;2022-07-04T12:54:39;26.00;54.60
12959;DHT22;6544;51.666;6.634;2022-07-04T12:57:10;26.50;79.20
12959;DHT22;6544;51.666;6.634;2022-07-04T12:59:38;27.00;1.00
12959;DHT22;6544;51.666;6.634;2022-07-04T13:02:06;26.40;1.00
12959;DHT22;6544;51.666;6.634;2022-07-04T13:04:33;26.70;1.00
12959;DHT22;6544;51.666;6.634;2022-07-04T13:07:12;27.10;1.00
12959;DHT22;6544;51.666;6.634;2022-07-04T13:09:41;27.10;1.00
12959;DHT22;6544;51.666;6.634;2022-07-04T13:12:10;26.00;1.00
12959;DHT22;6544;51.666;6.634;2022-07-04T13:14:55;25.20;47.80
12959;DHT22;6544;51.666;6.634;2022-07-04T13:17:22;25.00;99.90
12959;DHT22;6544;51.666;6.634;2022-07-04T13:19:50;25.60;94.40
12959;DHT22;6544;51.666;6.634;2022-07-04T13:22:20;25.10;60.90
12959;DHT22;6544;51.666;6.634;2022-07-04T13:24:47;24.80;99.90
12959;DHT22;6544;51.666;6.634;2022-07-04T13:27:15;24.80;99.90
12959;DHT22;6544;51.666;6.634;2022-07-04T13:29:42;24.80;99.90
12959;DHT22;6544;51.666;6.634;2022-07-04T13:32:10;24.20;99.90
12959;DHT22;6544;51.666;6.634;2022-07-04T13:34:37;24.30;99.90
12959;DHT22;6544;51.666;6.634;2022-07-04T13:37:04;24.80;99.90
12959;DHT22;6544;51.666;6.634;2022-07-04T13:39:32;25.10;99.90
12959;DHT22;6544;51.666;6.634;2022-07-04T13:42:00;25.00;99.90
12959;DHT22;6544;51.666;6.634;2022-07-04T13:44:28;25.60;99.90
12959;DHT22;6544;51.666;6.634;2022-07-04T13:46:55;26.00;28.90
12959;DHT22;6544;51.666;6.634;2022-07-04T13:49:24;26.30;84.00
12959;DHT22;6544;51.666;6.634;2022-07-04T13:51:51;26.10;1.00
12959;DHT22;6544;51.666;6.634;2022-07-04T13:54:18;25.80;1.00
12959;DHT22;6544;51.666;6.634;2022-07-04T13:56:45;25.50;28.20
12959;DHT22;6544;51.666;6.634;2022-07-04T13:59:12;25.80;95.90
12959;DHT22;6544;51.666;6.634;2022-07-04T14:01:40;26.10;99.90
12959;DHT22;6544;51.666;6.634;2022-07-04T14:04:07;25.80;70.40
12959;DHT22;6544;51.666;6.634;2022-07-04T14:06:34;24.40;99.90
12959;DHT22;6544;51.666;6.634;2022-07-04T14:09:01;24.60;99.90
12959;DHT22;6544;51.666;6.634;2022-07-04T14:11:28;24.30;99.90
12959;DHT22;6544;51.666;6.634;2022-07-04T14:13:56;24.80;99.90
12959;DHT22;6544;51.666;6.634;2022-07-04T14:16:22;24.90;99.90
12959;DHT22;6544;51.666;6.634;2022-07-04T14:18:51;25.00;99.90
12959;DHT22;6544;51.666;6.634;2022-07-04T14:21:18;24.60;99.90
12959;DHT22;6544;51.666;6.634;2022-07-04T14:23:45;24.10;99.90
12959;DHT22;6544;51.666;6.634;2022-07-04T14:26:13;24.70;99.90
12959;DHT22;6544;51.666;6.634;2022-07-04T14:28:41;24.40;99.90
12959;DHT22;6544;51.666;6.634;2022-07-04T14:31:10;24.80;99.90
12959;DHT22;6544;51.666;6.634;2022-07-04T14:33:37;24.30;99.90
12959;DHT22;6544;51.666;6.634;2022-07-04T14:36:06;24.70;99.90
12959;DHT22;6544;51.666;6.634;2022-07-04T14:38:34;24.30;99.90
12959;DHT22;6544;51.666;6.634;2022-07-04T14:41:01;24.20;99.90
12959;DHT22;6544;51.666;6.634;2022-07-04T14:43:37;24.40;99.90
12959;DHT22;6544;51.666;6.634;2022-07-04T14:46:04;23.90;99.90
12959;DHT22;6544;51.666;6.634;2022-07-04T14:48:31;23.90;99.90
12959;DHT22;6544;51.666;6.634;2022-07-04T14:50:58;23.80;99.90
12959;DHT22;6544;51.666;6.634;2022-07-04T14:53:26;23.90;99.90
12959;DHT22;6544;51.666;6.634;2022-07-04T14:55:54;24.10;99.90
12959;DHT22;6544;51.666;6.634;2022-07-04T14:58:21;24.00;99.90
12959;DHT22;6544;51.666;6.634;2022-07-04T15:00:47;24.10;99.90
12959;DHT22;6544;51.666;6.634;2022-07-04T15:03:14;24.20;99.90
12959;DHT22;6544;51.666;6.634;2022-07-04T15:05:42;23.60;99.90
12959;DHT22;6544;51.666;6.634;2022-07-04T15:08:09;23.80;99.90
12959;DHT22;6544;51.666;6.634;2022-07-04T15:10:38;24.20;99.90
12959;DHT22;6544;51.666;6.634;2022-07-04T15:13:05;24.30;99.90
12959;DHT22;6544;51.666;6.634;2022-07-04T15:15:32;23.90;99.90
12959;DHT22;6544;51.666;6.634;2022-07-04T15:17:59;24.30;99.90
12959;DHT22;6544;51.666;6.634;2022-07-04T15:20:27;24.40;99.90
12959;DHT22;6544;51.666;6.634;2022-07-04T15:23:11;23.80;99.90
12959;DHT22;6544;51.666;6.634;2022-07-04T15:25:57;23.90;99.90
12959;DHT22;6544;51.666;6.634;2022-07-04T15:28:24;23.70;99.90
12959;DHT22;6544;51.666;6.634;2022-07-04T15:30:51;23.50;99.90
12959;DHT22;6544;51.666;6.634;2022-07-04T15:33:18;23.30;99.90
12959;DHT22;6544;51.666;6.634;2022-07-04T15:35:45;23.30;99.90
12959;DHT22;6544;51.666;6.634;2022-07-04T15:38:13;23.40;99.90
12959;DHT22;6544;51.666;6.634;2022-07-04T15:40:41;23.50;99.90
12959;DHT22;6544;51.666;6.634;2022-07-04T15:43:10;23.60;99.90
12959;DHT22;6544;51.666;6.634;2022-07-04T15:45:37;23.90;99.90
12959;DHT22;6544;51.666;6.634;2022-07-04T15:48:04;23.90;99.90
12959;DHT22;6544;51.666;6.634;2022-07-04T15:50:32;23.70;99.90
12959;DHT22;6544;51.666;6.634;2022-07-04T15:52:59;23.70;99.90
12959;DHT22;6544;51.666;6.634;2022-07-04T15:55:26;23.70;99.90
12959;DHT22;6544;51.666;6.634;2022-07-04T15:57:53;23.70;99.90
12959;DHT22;6544;51.666;6.634;2022-07-04T16:00:22;23.90;99.90
12959;DHT22;6544;51.666;6.634;2022-07-04T16:02:49;23.80;99.90